createdAt,value
2023-01-12T00:00:02.095Z,99005.38
2023-01-12T00:02:31.644Z,99004.89
2023-01-12T00:05:00.267Z,99008.65
2023-01-12T00:07:29.703Z,99017.73
2023-01-12T00:09:58.534Z,99022.25
2023-01-12T00:12:27.223Z,99029.95
2023-01-12T00:14:55.997Z,99023.54
2023-01-12T00:17:24.881Z,99018.14
2023-01-12T00:19:54.798Z,99012.42
2023-01-12T00:22:23.965Z,99014.74
2023-01-12T00:24:52.950Z,99008.79
2023-01-12T00:27:22.884Z,99006.96
2023-01-12T00:29:51.933Z,99008.04
2023-01-12T00:32:21.558Z,99003.44
2023-01-12T00:34:50.465Z,99002.30
2023-01-12T00:37:20.475Z,98999.72
2023-01-12T00:40:01.518Z,98994.66
2023-01-12T00:42:51.330Z,98991.77
2023-01-12T00:45:23.143Z,98988.13
2023-01-12T00:47:53.899Z,98988.55
2023-01-12T00:50:22.837Z,98989.06
2023-01-12T00:52:51.724Z,98988.17
2023-01-12T00:55:20.662Z,98997.45
2023-01-12T00:57:49.665Z,98997.45
2023-01-12T01:00:19.870Z,98997.63
2023-01-12T01:02:48.616Z,98989.44
2023-01-12T01:05:18.222Z,98987.75
2023-01-12T01:07:47.916Z,98988.72
2023-01-12T01:10:17.413Z,98995.19
2023-01-12T01:12:46.155Z,98993.02
2023-01-12T01:15:15.385Z,98995.05
2023-01-12T01:17:44.550Z,99004.09
2023-01-12T01:20:13.348Z,99009.63
2023-01-12T01:22:42.663Z,99024.06
2023-01-12T01:25:11.723Z,99027.66
2023-01-12T01:27:40.548Z,99037.54
2023-01-12T01:30:10.495Z,99048.94
2023-01-12T01:32:39.725Z,99054.55
2023-01-12T01:35:08.636Z,99062.35
2023-01-12T01:37:37.386Z,99065.91
2023-01-12T01:40:06.741Z,99073.50
2023-01-12T01:42:35.949Z,99069.45
2023-01-12T01:45:06.606Z,99072.51
2023-01-12T01:47:41.587Z,99072.61
2023-01-12T01:50:17.202Z,99074.04
2023-01-12T01:52:53.749Z,99079.55
2023-01-12T01:55:30.864Z,99081.90
2023-01-12T01:58:06.228Z,99079.21
2023-01-12T02:00:36.706Z,99072.31
2023-01-12T02:03:07.877Z,99059.85
2023-01-12T02:05:38.372Z,99057.28
2023-01-12T02:08:26.309Z,99057.02
2023-01-12T02:10:57.140Z,99059.37
2023-01-12T02:13:49.668Z,99058.17
2023-01-12T02:16:23.728Z,99056.45
2023-01-12T02:19:34.900Z,99053.59
2023-01-12T02:22:19.307Z,99051.66
2023-01-12T02:24:51.032Z,99047.58
2023-01-12T02:27:46.157Z,99051.34
2023-01-12T02:30:34.369Z,99046.22
2023-01-12T02:33:14.817Z,99045.20
2023-01-12T02:35:54.511Z,99041.25
2023-01-12T02:38:36.868Z,99041.34
2023-01-12T02:41:49.287Z,99036.70
2023-01-12T02:44:29.737Z,99032.63
2023-01-12T02:47:01.077Z,99029.95
2023-01-12T02:49:36.976Z,99030.27
2023-01-12T02:52:11.347Z,99033.09
2023-01-12T02:54:43.200Z,99034.36
2023-01-12T02:57:12.224Z,99034.24
2023-01-12T02:59:44.919Z,99030.90
2023-01-12T03:02:19.554Z,99031.16
2023-01-12T03:04:48.834Z,99025.20
2023-01-12T03:07:33.847Z,99022.28
2023-01-12T03:10:18.501Z,99021.98
2023-01-12T03:12:51.908Z,99016.15
2023-01-12T03:15:23.575Z,99013.76
2023-01-12T03:18:01.105Z,99013.23
2023-01-12T03:20:46.296Z,99013.47
2023-01-12T03:23:24.452Z,99011.87
2023-01-12T03:25:58.502Z,99008.91
2023-01-12T03:28:34.906Z,99002.77
2023-01-12T03:31:11.323Z,98993.98
2023-01-12T03:33:45.386Z,98995.90
2023-01-12T03:36:29.161Z,98997.20
2023-01-12T03:39:26.024Z,99003.31
2023-01-12T03:42:03.408Z,99003.98
2023-01-12T03:44:47.097Z,99002.99
2023-01-12T03:47:25.562Z,99003.09
2023-01-12T03:49:56.789Z,99003.02
2023-01-12T03:52:28.376Z,99005.89
2023-01-12T03:55:00.329Z,99005.35
2023-01-12T03:57:29.767Z,99003.84
2023-01-12T04:00:01.220Z,99004.64
2023-01-12T04:02:30.156Z,99008.02
2023-01-12T04:04:59.090Z,99002.95
2023-01-12T04:07:28.030Z,99004.06
2023-01-12T04:09:57.652Z,99005.09
2023-01-12T04:12:27.130Z,99001.86
2023-01-12T04:14:55.760Z,98995.86
2023-01-12T04:17:25.810Z,99001.04
2023-01-12T04:19:54.756Z,99005.63
2023-01-12T04:22:42.198Z,99009.63
2023-01-12T04:25:14.290Z,99015.92
2023-01-12T04:28:05.195Z,99016.41
2023-01-12T04:30:34.922Z,99017.73
2023-01-12T04:33:08.804Z,99018.33
2023-01-12T04:35:38.497Z,99022.14
2023-01-12T04:38:09.002Z,99017.89
2023-01-12T04:40:37.893Z,99019.02
2023-01-12T04:43:10.413Z,99017.48
2023-01-12T04:45:44.185Z,99015.77
2023-01-12T04:48:15.562Z,99017.89
2023-01-12T04:50:45.133Z,99021.18
2023-01-12T04:53:14.936Z,99028.61
2023-01-12T04:55:44.138Z,99029.58
2023-01-12T04:58:12.969Z,99027.81
2023-01-12T05:00:42.166Z,99029.58
2023-01-12T05:03:15.388Z,99034.71
2023-01-12T05:05:44.457Z,99038.23
2023-01-12T05:08:32.593Z,99041.34
2023-01-12T05:11:02.065Z,99041.98
2023-01-12T05:13:32.643Z,99039.77
2023-01-12T05:16:12.992Z,99041.27
2023-01-12T05:18:46.907Z,99048.23
2023-01-12T05:21:18.561Z,99050.40
2023-01-12T05:23:47.364Z,99050.36
2023-01-12T05:26:16.066Z,99056.79
2023-01-12T05:28:47.733Z,99056.98
2023-01-12T05:31:16.740Z,99062.63
2023-01-12T05:33:46.352Z,99062.84
2023-01-12T05:36:17.728Z,99064.14
2023-01-12T05:38:46.700Z,99063.34
2023-01-12T05:41:15.743Z,99063.40
2023-01-12T05:43:50.984Z,99066.58
2023-01-12T05:46:29.445Z,99066.81
2023-01-12T05:48:58.716Z,99064.23
2023-01-12T05:51:28.291Z,99067.25
2023-01-12T05:53:57.413Z,99069.27
2023-01-12T05:56:28.556Z,99071.59
2023-01-12T05:59:00.872Z,99062.65
2023-01-12T06:01:30.880Z,99067.86
2023-01-12T06:04:02.086Z,99072.98
2023-01-12T06:06:32.464Z,99074.98
2023-01-12T06:09:02.713Z,99073.93
2023-01-12T06:11:50.847Z,99070.52
2023-01-12T06:14:20.115Z,99065.59
2023-01-12T06:16:49.335Z,99069.20
2023-01-12T06:19:18.643Z,99064.69
2023-01-12T06:21:48.162Z,99064.94
2023-01-12T06:24:17.376Z,99074.17
2023-01-12T06:26:46.879Z,99084.70
2023-01-12T06:29:15.796Z,99086.86
2023-01-12T06:31:45.137Z,99085.23
2023-01-12T06:34:14.263Z,99090.04
2023-01-12T06:36:43.591Z,99096.20
2023-01-12T06:39:13.959Z,99099.85
2023-01-12T06:42:01.707Z,99100.91
2023-01-12T06:44:32.424Z,99105.58
2023-01-12T06:47:03.354Z,99113.16
2023-01-12T06:49:32.582Z,99110.14
2023-01-12T06:52:01.442Z,99111.64
2023-01-12T06:54:31.782Z,99116.15
2023-01-12T06:57:01.037Z,99120.80
2023-01-12T06:59:30.644Z,99129.19
2023-01-12T07:01:59.378Z,99140.48
2023-01-12T07:04:28.713Z,99140.08
2023-01-12T07:06:57.367Z,99136.89
2023-01-12T07:09:26.472Z,99140.09
2023-01-12T07:11:55.595Z,99142.16
2023-01-12T07:14:25.070Z,99147.57
2023-01-12T07:16:54.334Z,99150.23
2023-01-12T07:19:23.464Z,99154.96
2023-01-12T07:21:52.671Z,99160.85
2023-01-12T07:24:21.675Z,99165.38
2023-01-12T07:26:51.259Z,99174.61
2023-01-12T07:29:20.522Z,99178.47
2023-01-12T07:31:49.952Z,99181.43
2023-01-12T07:34:19.076Z,99181.83
2023-01-12T07:36:52.329Z,99184.44
2023-01-12T07:39:21.603Z,99183.44
2023-01-12T07:42:09.300Z,99183.24
2023-01-12T07:44:38.084Z,99174.64
2023-01-12T07:47:07.061Z,99169.42
2023-01-12T07:49:35.771Z,99165.29
2023-01-12T07:52:04.858Z,99162.93
2023-01-12T07:54:36.369Z,99163.92
2023-01-12T07:57:08.464Z,99161.52
2023-01-12T07:59:37.422Z,99161.61
2023-01-12T08:02:07.257Z,99161.61
2023-01-12T08:04:35.969Z,99166.80
2023-01-12T08:07:04.648Z,99172.08
2023-01-12T08:09:33.226Z,99175.48
2023-01-12T08:12:02.064Z,99177.27
2023-01-12T08:14:39.613Z,99176.77
2023-01-12T08:17:13.382Z,99184.72
2023-01-12T08:19:58.116Z,99189.85
2023-01-12T08:22:38.425Z,99187.73
2023-01-12T08:25:13.684Z,99191.48
2023-01-12T08:27:49.117Z,99186.34
2023-01-12T08:30:22.445Z,99192.23
2023-01-12T08:32:52.281Z,99193.73
2023-01-12T08:35:25.265Z,99190.30
2023-01-12T08:37:57.102Z,99186.65
2023-01-12T08:40:47.204Z,99190.20
2023-01-12T08:43:36.052Z,99197.91
2023-01-12T08:46:08.711Z,99194.86
2023-01-12T08:48:39.714Z,99195.27
2023-01-12T08:51:09.213Z,99202.73
2023-01-12T08:53:38.927Z,99201.88
2023-01-12T08:56:09.694Z,99199.37
2023-01-12T08:58:38.707Z,99197.49
2023-01-12T09:01:14.179Z,99202.65
2023-01-12T09:03:47.467Z,99207.38
2023-01-12T09:06:25.997Z,99217.36
2023-01-12T09:09:00.747Z,99214.34
2023-01-12T09:11:31.843Z,99209.02
2023-01-12T09:14:02.249Z,99206.34
2023-01-12T09:16:33.478Z,99211.74
2023-01-12T09:19:03.999Z,99222.00
2023-01-12T09:21:36.640Z,99226.48
2023-01-12T09:24:07.159Z,99226.82
2023-01-12T09:26:41.655Z,99237.76
2023-01-12T09:29:12.336Z,99245.02
2023-01-12T09:31:43.730Z,99245.84
2023-01-12T09:34:13.413Z,99250.84
2023-01-12T09:36:42.885Z,99245.70
2023-01-12T09:39:33.011Z,99247.63
2023-01-12T09:42:20.629Z,99248.72
2023-01-12T09:45:10.147Z,99251.83
2023-01-12T09:47:41.589Z,99256.13
2023-01-12T09:50:11.125Z,99250.46
2023-01-12T09:52:52.159Z,99244.46
2023-01-12T09:55:23.766Z,99244.71
2023-01-12T09:58:35.118Z,99243.52
2023-01-12T10:01:20.538Z,99251.69
2023-01-12T10:03:59.380Z,99253.66
2023-01-12T10:06:29.199Z,99253.70
2023-01-12T10:09:19.278Z,99255.16
2023-01-12T10:12:06.749Z,99254.64
2023-01-12T10:15:00.340Z,99251.57
2023-01-12T10:17:55.239Z,99253.77
2023-01-12T10:20:31.030Z,99248.52
2023-01-12T10:23:09.137Z,99252.52
2023-01-12T10:25:45.753Z,99250.56
2023-01-12T10:28:26.405Z,99255.16
2023-01-12T10:30:56.683Z,99258.98
2023-01-12T10:33:31.424Z,99262.60
2023-01-12T10:36:18.026Z,99265.15
2023-01-12T10:38:56.119Z,99271.88
2023-01-12T10:41:26.953Z,99269.09
2023-01-12T10:43:58.927Z,99264.88
2023-01-12T10:46:32.933Z,99259.61
2023-01-12T10:49:25.428Z,99253.34
2023-01-12T10:51:55.385Z,99247.17
2023-01-12T10:54:37.472Z,99245.33
2023-01-12T10:57:13.677Z,99240.56
2023-01-12T10:59:52.702Z,99237.76
2023-01-12T11:02:24.607Z,99236.05
2023-01-12T11:04:54.620Z,99229.18
2023-01-12T11:07:29.387Z,99223.34
2023-01-12T11:10:29.624Z,99216.48
2023-01-12T11:13:01.931Z,99213.35
2023-01-12T11:15:40.621Z,99216.48
2023-01-12T11:19:00.829Z,99220.14
2023-01-12T11:21:35.458Z,99214.14
2023-01-12T11:24:34.598Z,99207.91
2023-01-12T11:27:14.272Z,99200.71
2023-01-12T11:30:19.358Z,99193.04
2023-01-12T11:33:25.055Z,99190.45
2023-01-12T11:36:09.117Z,99194.27
2023-01-12T11:38:50.629Z,99196.80
2023-01-12T11:41:36.477Z,99194.58
2023-01-12T11:44:27.355Z,99193.17
2023-01-12T11:47:05.538Z,99194.25
2023-01-12T11:49:41.851Z,99192.91
2023-01-12T11:52:17.081Z,99188.32
2023-01-12T11:54:46.165Z,99180.86
2023-01-12T11:57:21.149Z,99172.02
2023-01-12T12:00:05.315Z,99173.86
2023-01-12T12:02:52.980Z,99179.00
2023-01-12T12:05:34.677Z,99181.18
2023-01-12T12:08:22.099Z,99180.56
2023-01-12T12:10:58.615Z,99170.15
2023-01-12T12:13:42.700Z,99170.55
2023-01-12T12:16:33.600Z,99167.83
2023-01-12T12:19:29.204Z,99168.50
2023-01-12T12:22:34.771Z,99170.20
2023-01-12T12:25:48.860Z,99171.15
2023-01-12T12:28:57.645Z,99168.60
2023-01-12T12:32:07.271Z,99174.08
2023-01-12T12:34:44.225Z,99173.94
2023-01-12T12:37:22.223Z,99174.97
2023-01-12T12:39:54.517Z,99173.83
2023-01-12T12:42:52.348Z,99174.77
2023-01-12T12:45:34.117Z,99176.41
2023-01-12T12:48:44.860Z,99184.58
2023-01-12T12:51:15.882Z,99182.06
2023-01-12T12:53:50.401Z,99179.75
2023-01-12T12:56:27.173Z,99184.89
2023-01-12T12:59:04.066Z,99191.11
2023-01-12T13:01:33.294Z,99175.88
2023-01-12T13:04:08.630Z,99175.45
2023-01-12T13:06:45.403Z,99173.02
2023-01-12T13:09:16.711Z,99174.93
2023-01-12T13:12:02.103Z,99171.61
2023-01-12T13:14:40.051Z,99168.23
2023-01-12T13:17:21.600Z,99162.75
2023-01-12T13:19:53.443Z,99161.51
2023-01-12T13:22:33.385Z,99157.36
2023-01-12T13:25:03.634Z,99154.11
2023-01-12T13:28:01.719Z,99152.52
2023-01-12T13:30:30.650Z,99145.41
2023-01-12T13:33:18.046Z,99152.23
2023-01-12T13:35:47.334Z,99153.02
2023-01-12T13:38:38.310Z,99152.31
2023-01-12T13:41:50.539Z,99155.30
2023-01-12T13:44:41.338Z,99155.67
2023-01-12T13:47:17.105Z,99161.05
2023-01-12T13:49:54.051Z,99161.24
2023-01-12T13:52:32.859Z,99161.19
2023-01-12T13:55:03.272Z,99165.55
2023-01-12T13:57:33.708Z,99174.92
2023-01-12T14:00:09.749Z,99177.89
2023-01-12T14:02:40.868Z,99185.46
2023-01-12T14:05:31.456Z,99185.11
2023-01-12T14:08:52.395Z,99178.52
2023-01-12T14:11:21.403Z,99180.34
2023-01-12T14:14:33.844Z,99179.19
2023-01-12T14:17:32.918Z,99174.48
2023-01-12T14:20:02.317Z,99171.33
2023-01-12T14:22:31.852Z,99167.77
2023-01-12T14:25:17.633Z,99175.89
2023-01-12T14:27:55.087Z,99182.79
2023-01-12T14:30:27.809Z,99188.95
2023-01-12T14:32:56.957Z,99188.27
2023-01-12T14:35:26.910Z,99188.66
2023-01-12T14:38:02.265Z,99192.50
2023-01-12T14:40:33.682Z,99189.57
2023-01-12T14:43:22.239Z,99190.52
2023-01-12T14:46:25.558Z,99199.71
2023-01-12T14:49:18.646Z,99204.27
2023-01-12T14:51:59.291Z,99211.48
2023-01-12T14:54:32.221Z,99211.90
2023-01-12T14:57:08.504Z,99215.80
2023-01-12T14:59:44.526Z,99218.12
2023-01-12T15:02:13.904Z,99215.76
2023-01-12T15:05:06.865Z,99216.68
2023-01-12T15:07:42.577Z,99216.02
2023-01-12T15:10:11.412Z,99216.88
2023-01-12T15:12:47.544Z,99210.90
2023-01-12T15:15:21.957Z,99209.11
2023-01-12T15:18:11.652Z,99206.85
2023-01-12T15:21:02.570Z,99206.36
2023-01-12T15:23:56.468Z,99209.50
2023-01-12T15:26:25.355Z,99217.94
2023-01-12T15:28:53.986Z,99226.09
2023-01-12T15:31:29.506Z,99241.13
2023-01-12T15:33:58.794Z,99249.30
2023-01-12T15:36:27.805Z,99257.33
2023-01-12T15:38:57.171Z,99267.99
2023-01-12T15:41:50.443Z,99266.80
2023-01-12T15:44:22.113Z,99265.86
2023-01-12T15:46:51.211Z,99264.06
2023-01-12T15:49:20.481Z,99263.76
2023-01-12T15:51:53.144Z,99262.48
2023-01-12T15:54:22.167Z,99275.15
2023-01-12T15:56:51.336Z,99283.54
2023-01-12T15:59:21.164Z,99285.00
2023-01-12T16:01:51.675Z,99276.10
2023-01-12T16:04:42.351Z,99272.83
2023-01-12T16:07:13.255Z,99264.27
2023-01-12T16:09:46.067Z,99266.08
2023-01-12T16:12:16.217Z,99276.93
2023-01-12T16:14:45.446Z,99278.46
2023-01-12T16:17:14.849Z,99274.38
2023-01-12T16:19:44.809Z,99274.58
2023-01-12T16:22:23.278Z,99277.81
2023-01-12T16:24:55.452Z,99279.30
2023-01-12T16:27:27.191Z,99272.64
2023-01-12T16:29:56.448Z,99272.73
2023-01-12T16:32:27.527Z,99280.41
2023-01-12T16:34:56.582Z,99285.30
2023-01-12T16:37:28.593Z,99285.02
2023-01-12T16:39:57.864Z,99288.08
2023-01-12T16:42:28.349Z,99288.24
2023-01-12T16:44:57.757Z,99286.83
2023-01-12T16:47:27.257Z,99288.75
2023-01-12T16:49:56.242Z,99290.31
2023-01-12T16:52:24.831Z,99286.22
2023-01-12T16:54:53.683Z,99276.95
2023-01-12T16:57:22.442Z,99276.84
2023-01-12T16:59:52.060Z,99283.86
2023-01-12T17:02:21.201Z,99294.34
2023-01-12T17:04:52.785Z,99295.41
2023-01-12T17:07:21.967Z,99292.08
2023-01-12T17:09:51.479Z,99289.46
2023-01-12T17:12:20.618Z,99291.70
2023-01-12T17:14:49.728Z,99301.59
2023-01-12T17:17:18.816Z,99301.44
2023-01-12T17:19:47.700Z,99302.52
2023-01-12T17:22:17.204Z,99307.05
2023-01-12T17:24:47.724Z,99310.87
2023-01-12T17:27:17.079Z,99309.20
2023-01-12T17:29:53.058Z,99314.77
2023-01-12T17:32:23.386Z,99315.09
2023-01-12T17:34:53.465Z,99317.28
2023-01-12T17:37:23.231Z,99318.42
2023-01-12T17:39:53.418Z,99324.51
2023-01-12T17:42:41.306Z,99322.31
2023-01-12T17:45:11.139Z,99324.67
2023-01-12T17:47:40.278Z,99330.08
2023-01-12T17:50:10.846Z,99333.04
2023-01-12T17:52:40.345Z,99335.39
2023-01-12T17:55:09.783Z,99337.32
2023-01-12T17:57:38.894Z,99338.73
2023-01-12T18:00:11.308Z,99334.58
2023-01-12T18:02:41.580Z,99327.13
2023-01-12T18:05:11.965Z,99324.67
2023-01-12T18:07:42.210Z,99326.02
2023-01-12T18:10:12.204Z,99330.13
2023-01-12T18:12:41.558Z,99331.20
2023-01-12T18:15:11.827Z,99330.54
2023-01-12T18:17:42.404Z,99330.73
2023-01-12T18:20:11.999Z,99325.89
2023-01-12T18:22:41.750Z,99321.31
2023-01-12T18:25:11.861Z,99325.70
2023-01-12T18:27:40.899Z,99323.14
2023-01-12T18:30:10.752Z,99319.16
2023-01-12T18:32:40.766Z,99320.73
2023-01-12T18:35:11.154Z,99314.30
2023-01-12T18:37:40.650Z,99314.48
2023-01-12T18:40:11.151Z,99313.47
2023-01-12T18:42:54.992Z,99307.91
2023-01-12T18:45:25.227Z,99311.73
2023-01-12T18:48:12.873Z,99311.79
2023-01-12T18:51:00.827Z,99319.33
2023-01-12T18:53:31.875Z,99326.21
2023-01-12T18:56:06.366Z,99330.33
2023-01-12T18:58:38.008Z,99333.00
2023-01-12T19:01:19.701Z,99333.10
2023-01-12T19:03:50.171Z,99335.48
2023-01-12T19:06:22.012Z,99337.98
2023-01-12T19:09:11.876Z,99336.73
2023-01-12T19:11:43.351Z,99333.21
2023-01-12T19:14:33.195Z,99346.77
2023-01-12T19:17:21.402Z,99361.84
2023-01-12T19:19:51.366Z,99365.09
2023-01-12T19:22:40.451Z,99356.14
2023-01-12T19:25:35.749Z,99350.30
2023-01-12T19:28:25.224Z,99350.25
2023-01-12T19:30:54.292Z,99342.10
2023-01-12T19:33:24.726Z,99338.92
2023-01-12T19:35:55.254Z,99334.16
2023-01-12T19:38:25.125Z,99331.10
2023-01-12T19:40:55.088Z,99332.61
2023-01-12T19:43:30.241Z,99337.25
2023-01-12T19:46:03.525Z,99333.84
2023-01-12T19:48:33.720Z,99339.00
2023-01-12T19:51:10.628Z,99342.11
2023-01-12T19:53:41.078Z,99341.38
2023-01-12T19:56:12.826Z,99342.26
2023-01-12T19:58:43.054Z,99341.85
2023-01-12T20:01:22.416Z,99349.48
2023-01-12T20:03:54.580Z,99349.31
2023-01-12T20:06:27.073Z,99349.81
2023-01-12T20:08:57.071Z,99347.74
2023-01-12T20:11:30.741Z,99350.73
2023-01-12T20:14:05.134Z,99349.83
2023-01-12T20:16:34.565Z,99352.69
2023-01-12T20:19:05.850Z,99354.98
2023-01-12T20:21:35.312Z,99351.16
2023-01-12T20:24:05.152Z,99351.80
2023-01-12T20:26:34.392Z,99353.23
2023-01-12T20:29:03.735Z,99349.36
2023-01-12T20:31:34.404Z,99340.92
2023-01-12T20:34:04.825Z,99332.59
2023-01-12T20:36:34.822Z,99327.92
2023-01-12T20:39:06.445Z,99330.56
2023-01-12T20:41:36.985Z,99333.83
2023-01-12T20:44:08.759Z,99336.27
2023-01-12T20:46:37.741Z,99342.02
2023-01-12T20:49:07.017Z,99338.85
2023-01-12T20:51:37.098Z,99337.46
2023-01-12T20:54:06.873Z,99339.05
2023-01-12T20:56:36.112Z,99343.28
2023-01-12T20:59:06.361Z,99344.98
2023-01-12T21:01:35.905Z,99348.42
2023-01-12T21:04:06.974Z,99347.05
2023-01-12T21:06:36.469Z,99355.09
2023-01-12T21:09:05.952Z,99353.88
2023-01-12T21:11:35.481Z,99354.37
2023-01-12T21:14:06.186Z,99354.27
2023-01-12T21:16:37.356Z,99350.73
2023-01-12T21:19:08.215Z,99351.51
2023-01-12T21:21:38.419Z,99351.13
2023-01-12T21:24:07.715Z,99352.75
2023-01-12T21:26:36.663Z,99347.39
2023-01-12T21:29:05.735Z,99346.18
2023-01-12T21:31:35.451Z,99348.80
2023-01-12T21:34:04.841Z,99353.56
2023-01-12T21:36:34.028Z,99353.26
2023-01-12T21:39:05.034Z,99363.55
2023-01-12T21:41:54.066Z,99371.14
2023-01-12T21:44:23.916Z,99369.59
2023-01-12T21:46:52.622Z,99377.54
2023-01-12T21:49:21.741Z,99381.66
2023-01-12T21:51:50.748Z,99382.34
2023-01-12T21:54:19.934Z,99380.79
2023-01-12T21:56:48.927Z,99376.27
2023-01-12T21:59:19.533Z,99375.41
2023-01-12T22:01:48.952Z,99373.10
2023-01-12T22:04:18.896Z,99370.07
2023-01-12T22:06:52.165Z,99364.05
2023-01-12T22:09:21.892Z,99358.54
2023-01-12T22:11:52.142Z,99351.30
2023-01-12T22:14:21.419Z,99354.23
2023-01-12T22:16:51.189Z,99356.55
2023-01-12T22:19:20.564Z,99365.38
2023-01-12T22:21:50.679Z,99366.63
2023-01-12T22:24:21.203Z,99364.24
2023-01-12T22:26:51.191Z,99359.00
2023-01-12T22:29:20.161Z,99359.52
2023-01-12T22:31:49.636Z,99366.02
2023-01-12T22:34:19.230Z,99369.69
2023-01-12T22:36:50.659Z,99371.31
2023-01-12T22:39:20.782Z,99376.63
2023-01-12T22:41:51.095Z,99372.29
2023-01-12T22:44:20.263Z,99366.59
2023-01-12T22:46:49.660Z,99368.40
2023-01-12T22:49:18.849Z,99370.85
2023-01-12T22:51:47.814Z,99367.80
2023-01-12T22:54:16.510Z,99365.17
2023-01-12T22:56:46.479Z,99367.21
2023-01-12T22:59:15.353Z,99369.48
2023-01-12T23:01:44.819Z,99377.51
2023-01-12T23:04:13.766Z,99373.30
2023-01-12T23:06:42.737Z,99369.48
2023-01-12T23:09:12.651Z,99365.84
2023-01-12T23:11:42.166Z,99359.95
2023-01-12T23:14:11.486Z,99360.95
2023-01-12T23:16:40.969Z,99357.23
2023-01-12T23:19:10.850Z,99351.02
2023-01-12T23:21:41.796Z,99349.88
2023-01-12T23:24:11.315Z,99358.67
2023-01-12T23:26:41.156Z,99362.34
2023-01-12T23:29:10.516Z,99364.98
2023-01-12T23:31:39.640Z,99361.70
2023-01-12T23:34:08.768Z,99357.40
2023-01-12T23:36:38.528Z,99355.09
2023-01-12T23:39:10.143Z,99355.90
2023-01-12T23:41:39.543Z,99355.23
2023-01-12T23:44:10.801Z,99353.39
2023-01-12T23:46:43.536Z,99351.31
2023-01-12T23:49:12.555Z,99344.63
2023-01-12T23:51:41.823Z,99347.24
2023-01-12T23:54:13.663Z,99351.94
2023-01-12T23:56:42.662Z,99354.77
2023-01-12T23:59:12.280Z,99344.54
